Time;durP1;ratioP1;P1;durP2;ratioP2;P2;SDS_P1;SDS_P2;PMS_P1;PMS_P2;Temp;Humidity;BMP_temperature;BMP_pressure;BME280_temperature;BME280_humidity;BME280_pressure;Samples;Min_cycle;Max_cycle;Signal;HPM_P1;HPM_P2
2021/12/30 00:01:25;;;;;;;38.13;8.52;;;;;;;9.76;100.00;100416.91;6167992;23;20080;-83
2021/12/30 00:03:51;;;;;;;28.60;6.47;;;;;;;9.74;100.00;100430.47;6158168;23;20013;-86
2021/12/30 00:06:18;;;;;;;32.00;8.65;;;;;;;9.75;100.00;100428.63;6185130;23;20028;-85
2021/12/30 00:08:45;;;;;;;34.22;8.63;;;;;;;9.73;100.00;100436.84;6134717;23;20021;-85
2021/12/30 00:11:10;;;;;;;32.45;9.43;;;;;;;9.71;100.00;100426.28;6206380;23;20013;-86
2021/12/30 00:13:39;;;;;;;47.20;11.57;;;;;;;9.72;100.00;100443.19;6179160;23;20020;-86
2021/12/30 00:16:04;;;;;;;43.70;10.73;;;;;;;9.71;100.00;100453.06;6206986;23;20338;-85
2021/12/30 00:18:30;;;;;;;37.85;10.98;;;;;;;9.73;100.00;100434.16;6206441;23;20087;-85
2021/12/30 00:20:55;;;;;;;40.97;11.55;;;;;;;9.71;100.00;100442.34;6155116;23;20451;-85
2021/12/30 00:23:20;;;;;;;39.33;11.93;;;;;;;9.74;100.00;100443.03;6179731;23;20471;-85
2021/12/30 00:25:48;;;;;;;45.92;11.50;;;;;;;9.75;100.00;100433.97;6178493;23;20020;-86
2021/12/30 00:28:21;;;;;;;34.50;11.27;;;;;;;9.75;100.00;100433.97;6205753;23;20028;-86
2021/12/30 00:30:49;;;;;;;39.13;12.73;;;;;;;9.75;100.00;100436.66;6205186;23;20024;-87
2021/12/30 00:33:15;;;;;;;42.80;12.82;;;;;;;9.75;100.00;100434.81;6180809;23;20027;-86
2021/12/30 00:35:40;;;;;;;45.80;13.00;;;;;;;9.74;100.00;100427.78;6179389;23;20016;-86
2021/12/30 00:38:07;;;;;;;47.55;14.07;;;;;;;9.72;100.00;100448.56;6180482;23;20390;-86
2021/12/30 00:40:34;;;;;;;44.42;15.07;;;;;;;9.75;100.00;100452.75;6153777;23;20024;-86
2021/12/30 00:43:00;;;;;;;43.15;17.02;;;;;;;9.75;100.00;100458.09;6179446;23;20474;-86
2021/12/30 00:45:27;;;;;;;49.28;15.90;;;;;;;9.77;100.00;100456.09;6204512;23;20013;-86
2021/12/30 00:47:58;;;;;;;46.38;16.20;;;;;;;9.77;100.00;100461.47;6177604;23;20336;-86
2021/12/30 00:50:39;;;;;;;43.30;15.20;;;;;;;9.71;100.00;100463.78;6208755;23;20547;-86
2021/12/30 00:53:07;;;;;;;43.78;16.48;;;;;;;9.69;100.00;100481.88;6182321;23;20023;-86
2021/12/30 00:55:33;;;;;;;48.17;15.95;;;;;;;9.64;100.00;100478.88;6204993;23;20104;-86
2021/12/30 00:57:59;;;;;;;50.47;15.98;;;;;;;9.59;100.00;100477.69;6207668;23;20043;-86
2021/12/30 01:00:25;;;;;;;52.42;15.35;;;;;;;9.53;100.00;100473.00;6128756;23;20382;-85
2021/12/30 01:02:50;;;;;;;44.25;13.40;;;;;;;9.47;100.00;100491.41;6205397;23;20016;-86
2021/12/30 01:05:16;;;;;;;50.10;16.00;;;;;;;9.47;100.00;100494.06;6180011;23;20122;-86
2021/12/30 01:07:42;;;;;;;38.58;14.43;;;;;;;9.46;100.00;100505.78;6178550;23;20471;-85
2021/12/30 01:10:11;;;;;;;47.40;16.92;;;;;;;9.45;100.00;100509.47;6206661;23;20469;-86
2021/12/30 01:12:37;;;;;;;51.40;15.88;;;;;;;9.42;100.00;100492.91;6202200;23;20079;-86
2021/12/30 01:15:10;;;;;;;44.80;15.45;;;;;;;9.42;100.00;100496.41;6154291;23;20100;-86
2021/12/30 01:20:12;;;;;;;47.05;17.60;;;;;;;9.44;100.00;100510.47;6184116;23;20483;-86
2021/12/30 01:22:37;;;;;;;49.47;17.95;;;;;;;9.48;100.00;100510.97;6178176;23;20009;-86
2021/12/30 01:25:07;;;;;;;48.28;17.77;;;;;;;9.49;100.00;100518.00;6204689;23;20034;-86
2021/12/30 01:27:33;;;;;;;49.25;17.15;;;;;;;9.54;100.00;100522.88;6204139;23;20335;-85
2021/12/30 01:29:59;;;;;;;45.42;18.27;;;;;;;9.58;100.00;100532.25;6204797;23;20016;-86
2021/12/30 01:32:24;;;;;;;50.80;17.58;;;;;;;9.60;100.00;100541.81;6128876;23;20021;-85
2021/12/30 01:34:52;;;;;;;49.35;17.02;;;;;;;9.62;100.00;100550.53;6179402;23;20521;-85
2021/12/30 01:37:20;;;;;;;53.30;19.13;;;;;;;9.62;100.00;100547.00;6178440;23;20388;-86
2021/12/30 01:39:46;;;;;;;51.78;19.30;;;;;;;9.61;100.00;100534.59;6180396;23;20025;-86
2021/12/30 01:42:11;;;;;;;51.33;17.80;;;;;;;9.63;100.00;100537.97;6203331;23;20030;-86
2021/12/30 01:44:37;;;;;;;44.53;19.85;;;;;;;9.65;100.00;100534.13;6203574;23;20024;-86
2021/12/30 01:47:04;;;;;;;49.75;19.73;;;;;;;9.66;100.00;100541.16;6206011;23;20278;-86
2021/12/30 01:49:30;;;;;;;54.83;19.05;;;;;;;9.68;100.00;100532.97;6128803;23;20442;-86
2021/12/30 01:51:56;;;;;;;50.53;19.95;;;;;;;9.69;100.00;100530.09;6179544;23;20108;-86
2021/12/30 01:54:24;;;;;;;56.83;20.48;;;;;;;9.74;100.00;100537.66;6179222;23;20301;-87
2021/12/30 01:56:51;;;;;;;50.55;20.50;;;;;;;9.77;100.00;100545.38;6128955;23;20436;-86
2021/12/30 01:59:22;;;;;;;50.15;16.77;;;;;;;9.79;100.00;100553.25;6205831;23;20012;-86
2021/12/30 02:01:53;;;;;;;49.72;19.10;;;;;;;9.81;100.00;100544.03;6204406;23;20470;-86
2021/12/30 02:04:18;;;;;;;53.53;18.25;;;;;;;9.83;100.00;100547.38;6203703;23;20020;-86
2021/12/30 02:06:43;;;;;;;51.15;20.30;;;;;;;9.86;100.00;100540.84;6179142;23;20049;-86
2021/12/30 02:09:09;;;;;;;50.65;18.00;;;;;;;9.85;100.00;100539.19;6130185;23;20021;-85
2021/12/30 02:11:34;;;;;;;54.53;18.08;;;;;;;9.90;100.00;100540.38;6203791;23;20023;-86
2021/12/30 02:13:59;;;;;;;52.47;20.95;;;;;;;9.91;100.00;100543.88;6154283;23;20336;-85
2021/12/30 02:16:25;;;;;;;58.53;23.90;;;;;;;9.92;100.00;100554.41;6204350;23;20016;-86
2021/12/30 02:18:52;;;;;;;56.03;21.75;;;;;;;9.94;100.00;100557.78;6154051;23;20071;-86
2021/12/30 02:21:17;;;;;;;70.18;22.75;;;;;;;9.96;100.00;100551.44;6179598;23;20024;-86
2021/12/30 02:23:43;;;;;;;55.72;23.50;;;;;;;9.99;100.00;100573.38;6152975;23;20021;-85
2021/12/30 02:26:15;;;;;;;60.13;25.73;;;;;;;9.99;100.00;100573.38;6205478;23;20024;-86
2021/12/30 02:28:41;;;;;;;56.80;21.77;;;;;;;10.05;100.00;100571.88;6179259;23;20148;-85
2021/12/30 02:31:11;;;;;;;51.67;23.25;;;;;;;10.08;100.00;100572.38;6153448;23;20047;-85
2021/12/30 02:33:37;;;;;;;57.50;21.25;;;;;;;10.10;100.00;100575.75;6178626;23;20532;-85
2021/12/30 02:36:04;;;;;;;54.13;21.15;;;;;;;10.10;100.00;100580.28;6204567;23;20024;-86
2021/12/30 02:38:29;;;;;;;57.30;24.10;;;;;;;10.13;100.00;100558.47;6202247;23;20023;-86
2021/12/30 02:40:57;;;;;;;56.08;25.70;;;;;;;10.13;100.00;100564.69;6204657;23;20021;-86
2021/12/30 02:43:25;;;;;;;56.50;23.55;;;;;;;10.17;100.00;100567.84;6179366;23;20020;-85
2021/12/30 02:45:52;;;;;;;53.05;22.90;;;;;;;10.19;100.00;100563.19;6203192;23;20020;-85
2021/12/30 02:48:21;;;;;;;57.22;23.75;;;;;;;10.22;100.00;100567.38;6177469;23;20027;-86
2021/12/30 02:50:48;;;;;;;50.37;21.50;;;;;;;10.25;100.00;100581.28;6201911;23;20013;-86
2021/12/30 02:53:14;;;;;;;60.60;25.35;;;;;;;10.27;100.00;100583.81;6179014;23;20586;-86
2021/12/30 02:55:42;;;;;;;55.88;22.35;;;;;;;10.30;100.00;100578.97;6203382;23;20020;-86
2021/12/30 02:58:07;;;;;;;56.85;25.17;;;;;;;10.29;100.00;100569.22;6178559;23;20012;-86
2021/12/30 03:00:34;;;;;;;53.90;25.27;;;;;;;10.32;100.00;100574.25;6202806;23;20035;-85
2021/12/30 03:02:59;;;;;;;60.38;22.42;;;;;;;10.35;100.00;100573.06;6153496;23;20037;-86
2021/12/30 03:05:25;;;;;;;66.18;25.25;;;;;;;10.37;100.00;100582.63;6204238;23;20051;-86
2021/12/30 03:07:52;;;;;;;60.05;22.98;;;;;;;10.39;100.00;100585.16;6204656;23;20515;-86
2021/12/30 03:10:20;;;;;;;61.92;26.13;;;;;;;10.38;100.00;100600.41;6202839;23;20079;-86
2021/12/30 03:12:52;;;;;;;55.27;24.47;;;;;;;10.41;100.00;100601.91;6178355;23;20355;-86
2021/12/30 03:15:18;;;;;;;60.05;25.95;;;;;;;10.39;100.00;100587.84;6205805;23;20281;-86
2021/12/30 03:17:44;;;;;;;65.30;25.40;;;;;;;10.36;100.00;100590.88;6177035;23;20099;-86
2021/12/30 03:20:09;;;;;;;63.97;26.25;;;;;;;10.35;100.00;100600.72;6178053;23;20115;-86
2021/12/30 03:22:41;;;;;;;68.93;25.65;;;;;;;10.36;100.00;100596.25;6153360;23;20020;-86
2021/12/30 03:25:10;;;;;;;76.70;29.42;;;;;;;10.33;100.00;100589.34;6152732;23;20025;-86
2021/12/30 03:27:35;;;;;;;;;;;;;;;10.32;100.00;100606.44;6203855;23;20092;-85
2021/12/30 03:30:08;;;;;;;70.13;27.20;;;;;;;10.26;100.00;100590.97;6204534;23;19939;-85
2021/12/30 03:32:34;;;;;;;80.88;34.30;;;;;;;10.26;100.00;100600.88;6178081;23;20023;-86
2021/12/30 03:34:59;;;;;;;89.05;35.03;;;;;;;10.24;100.00;100602.88;6204869;23;20024;-86
2021/12/30 03:37:25;;;;;;;93.88;36.15;;;;;;;10.27;100.00;100594.53;6178685;23;20009;-86
2021/12/30 03:39:53;;;;;;;91.18;35.22;;;;;;;10.25;100.00;100593.84;6177433;23;20021;-87
2021/12/30 03:42:18;;;;;;;84.18;32.95;;;;;;;10.24;100.00;100584.09;6156046;23;20009;-86
2021/12/30 03:44:44;;;;;;;91.05;32.22;;;;;;;10.23;100.00;100579.75;6154549;23;20082;-86
2021/12/30 03:47:17;;;;;;;86.03;32.40;;;;;;;10.25;100.00;100593.84;6180227;23;20020;-86
2021/12/30 03:49:44;;;;;;;96.20;35.65;;;;;;;10.26;100.00;100584.78;6207004;23;20019;-85
2021/12/30 03:52:11;;;;;;;94.32;35.85;;;;;;;10.30;100.00;100596.88;6204884;23;20038;-86
2021/12/30 03:54:37;;;;;;;83.63;30.38;;;;;;;10.30;100.00;100602.25;6206549;23;20035;-85
2021/12/30 03:57:03;;;;;;;93.90;34.20;;;;;;;10.27;100.00;100591.84;6207582;23;20025;-86
2021/12/30 03:59:28;;;;;;;93.40;36.97;;;;;;;10.29;100.00;100601.41;6206377;23;20019;-86
2021/12/30 04:01:54;;;;;;;89.45;32.85;;;;;;;10.28;100.00;100605.09;6155416;23;20031;-86
2021/12/30 04:04:19;;;;;;;99.63;31.58;;;;;;;10.29;100.00;100611.31;6204365;23;20496;-86
2021/12/30 04:06:45;;;;;;;101.07;36.88;;;;;;;10.29;100.00;100614.00;6154588;23;20021;-86
2021/12/30 04:09:10;;;;;;;98.38;32.83;;;;;;;10.27;100.00;100602.56;6181064;23;20036;-86
2021/12/30 04:11:37;;;;;;;95.72;32.97;;;;;;;10.27;100.00;100610.63;6205022;23;20020;-85
2021/12/30 04:14:03;;;;;;;100.60;33.67;;;;;;;10.29;100.00;100605.94;6206615;23;20045;-84
2021/12/30 04:16:29;;;;;;;95.03;33.10;;;;;;;10.30;100.00;100602.25;6179621;23;20016;-84
2021/12/30 04:18:55;;;;;;;99.13;33.53;;;;;;;10.30;100.00;100600.44;6179495;23;20027;-84
2021/12/30 04:21:22;;;;;;;69.18;26.08;;;;;;;10.32;100.00;100601.06;6180088;23;20099;-85
2021/12/30 04:23:47;;;;;;;88.88;31.30;;;;;;;10.31;100.00;100583.31;6178541;23;20017;-87
2021/12/30 04:26:13;;;;;;;97.60;32.80;;;;;;;10.31;100.00;100585.16;6179841;23;20022;-85
2021/12/30 04:28:38;;;;;;;85.15;29.63;;;;;;;10.34;100.00;100582.16;6154619;23;20016;-85
2021/12/30 04:31:04;;;;;;;78.72;28.85;;;;;;;10.37;100.00;100571.06;6206115;23;20092;-84
2021/12/30 04:33:29;;;;;;;80.35;27.35;;;;;;;10.42;100.00;100567.91;6204729;23;20098;-85
2021/12/30 04:35:56;;;;;;;75.35;30.58;;;;;;;10.45;100.00;100576.44;6204878;23;20020;-84
2021/12/30 04:38:27;;;;;;;76.35;28.67;;;;;;;10.45;100.00;100572.94;6180501;23;20027;-85
2021/12/30 04:40:53;;;;;;;80.20;29.08;;;;;;;10.48;100.00;100575.28;6154198;23;20448;-84
2021/12/30 04:43:19;;;;;;;70.55;27.92;;;;;;;10.49;100.00;100580.44;6206734;23;20530;-85
2021/12/30 04:45:47;;;;;;;77.05;27.00;;;;;;;10.49;100.00;100564.34;6178657;23;20036;-84
2021/12/30 04:48:13;;;;;;;74.60;24.67;;;;;;;10.52;100.00;100585.47;6205101;23;20400;-84
2021/12/30 04:50:38;;;;;;;72.88;25.33;;;;;;;10.54;100.00;100588.84;6203978;23;20443;-84
2021/12/30 04:53:04;;;;;;;73.82;23.73;;;;;;;10.54;100.00;100588.00;6179874;23;20027;-84
2021/12/30 04:55:29;;;;;;;68.38;26.10;;;;;;;10.59;100.00;100599.91;6178849;23;20036;-85
2021/12/30 04:57:55;;;;;;;75.65;25.02;;;;;;;10.60;100.00;100603.44;6179513;23;20095;-84
2021/12/30 05:00:20;;;;;;;67.88;22.42;;;;;;;10.60;100.00;100598.06;6178854;23;20475;-84
2021/12/30 05:05:30;;;;;;;64.35;22.30;;;;;;;10.67;100.00;100608.94;6183354;23;20465;-85
2021/12/30 05:07:55;;;;;;;67.93;23.48;;;;;;;10.68;100.00;100594.53;6204212;23;20032;-85
2021/12/30 05:10:21;;;;;;;69.55;24.63;;;;;;;10.69;100.00;100598.88;6205193;23;20118;-85
2021/12/30 05:12:46;;;;;;;68.55;21.45;;;;;;;10.73;100.00;100600.22;6154661;23;20016;-85
2021/12/30 05:15:12;;;;;;;72.38;24.67;;;;;;;10.73;100.00;100595.72;6205876;23;20016;-85
2021/12/30 05:17:39;;;;;;;61.72;22.77;;;;;;;10.77;100.00;100593.50;6205551;23;20016;-84
2021/12/30 05:20:05;;;;;;;58.55;18.98;;;;;;;10.79;100.00;100596.88;6178593;23;20362;-85
2021/12/30 05:22:31;;;;;;;62.40;20.35;;;;;;;10.79;100.00;100588.81;6205935;23;20450;-85
2021/12/30 05:24:56;;;;;;;59.05;23.60;;;;;;;10.82;100.00;100596.53;6154237;23;20044;-84
2021/12/30 05:27:21;;;;;;;57.40;20.17;;;;;;;10.84;100.00;100592.63;6154373;23;20190;-85
2021/12/30 05:29:47;;;;;;;59.03;21.92;;;;;;;10.90;100.00;100583.06;6203482;23;20021;-85
2021/12/30 05:32:13;;;;;;;48.33;17.52;;;;;;;10.95;100.00;100583.41;6182507;23;20210;-84
2021/12/30 05:34:38;;;;;;;54.35;19.58;;;;;;;10.98;100.00;100585.72;6157089;23;20019;-84
2021/12/30 05:37:03;;;;;;;40.67;17.95;;;;;;;10.99;100.00;100586.56;6210043;23;20095;-84
2021/12/30 05:39:30;;;;;;;42.08;17.60;;;;;;;11.04;100.00;100595.78;6210260;23;20015;-84
2021/12/30 05:41:57;;;;;;;44.03;16.58;;;;;;;11.05;100.00;100594.78;6181753;23;20044;-84
2021/12/30 05:44:22;;;;;;;41.28;14.82;;;;;;;11.14;100.00;100584.03;6201886;23;20024;-84
2021/12/30 05:46:48;;;;;;;46.75;17.70;;;;;;;11.13;100.00;100587.72;6203823;23;20430;-85
2021/12/30 05:49:13;;;;;;;41.83;16.75;;;;;;;11.11;100.00;100592.44;6204617;23;20439;-84
2021/12/30 05:51:41;;;;;;;39.78;16.73;;;;;;;11.14;100.00;100600.97;6179738;23;20043;-84
2021/12/30 05:54:07;;;;;;;37.70;13.93;;;;;;;11.13;100.00;100606.50;6183489;23;20351;-85
2021/12/30 05:56:32;;;;;;;36.30;14.05;;;;;;;11.17;100.00;100605.16;6183261;23;20211;-84
2021/12/30 05:58:57;;;;;;;30.15;14.30;;;;;;;11.16;100.00;100603.47;6157599;23;20024;-84
2021/12/30 06:01:23;;;;;;;37.63;16.20;;;;;;;11.20;100.00;100608.34;6209637;23;20044;-84
2021/12/30 06:03:48;;;;;;;29.75;15.43;;;;;;;11.26;100.00;100614.88;6178692;23;20475;-84
2021/12/30 06:06:13;;;;;;;33.60;15.77;;;;;;;11.22;100.00;100610.84;6153593;23;20020;-84
2021/12/30 06:08:39;;;;;;;31.85;13.55;;;;;;;11.24;100.00;100601.59;6206096;23;20039;-84
2021/12/30 06:11:04;;;;;;;32.20;14.90;;;;;;;11.26;100.00;100606.81;6207154;23;20021;-84
2021/12/30 06:13:29;;;;;;;29.42;12.60;;;;;;;11.25;100.00;100603.28;6157953;23;20047;-84
2021/12/30 06:15:55;;;;;;;28.55;12.68;;;;;;;11.28;100.00;100604.81;6157828;23;20023;-84
2021/12/30 06:18:20;;;;;;;23.55;10.98;;;;;;;11.28;100.00;100620.91;6183722;23;20017;-85
2021/12/30 06:20:46;;;;;;;26.80;10.63;;;;;;;11.29;100.00;100609.16;6206566;23;20023;-84
2021/12/30 06:23:11;;;;;;;29.40;11.48;;;;;;;11.27;100.00;100605.78;6206387;23;20096;-84
2021/12/30 06:25:37;;;;;;;24.15;8.55;;;;;;;11.30;100.00;100606.28;6153903;23;20083;-84
2021/12/30 06:28:02;;;;;;;25.38;10.80;;;;;;;11.30;100.00;100602.75;6204118;23;20043;-85
2021/12/30 06:30:28;;;;;;;22.38;9.20;;;;;;;11.32;100.00;100598.06;6178063;23;20013;-84
2021/12/30 06:32:53;;;;;;;23.88;9.82;;;;;;;11.33;100.00;100594.34;6133038;23;20477;-84
2021/12/30 06:35:18;;;;;;;17.27;7.72;;;;;;;11.30;100.00;100597.38;6182112;23;20024;-85
2021/12/30 06:37:44;;;;;;;18.85;7.25;;;;;;;11.36;100.00;100603.91;6157738;23;20074;-85
2021/12/30 06:40:11;;;;;;;16.73;7.10;;;;;;;11.35;100.00;100595.03;6182929;23;20439;-85
2021/12/30 06:42:37;;;;;;;15.60;6.47;;;;;;;11.39;100.00;100595.50;6181331;23;20388;-84
2021/12/30 06:45:03;;;;;;;10.32;4.90;;;;;;;11.42;100.00;100598.69;6203943;23;20051;-84
2021/12/30 06:47:29;;;;;;;11.02;4.90;;;;;;;11.44;100.00;100602.03;6204663;23;20019;-85
2021/12/30 06:50:00;;;;;;;10.52;4.38;;;;;;;11.44;100.00;100599.34;6179270;23;20020;-84
2021/12/30 06:52:25;;;;;;;10.45;4.93;;;;;;;11.44;100.00;100602.03;6204573;23;20347;-84
2021/12/30 06:54:51;;;;;;;9.23;4.60;;;;;;;11.43;100.00;100599.53;6202829;23;20021;-84
2021/12/30 06:57:16;;;;;;;11.60;4.85;;;;;;;11.44;100.00;100607.41;6179372;23;20043;-84
2021/12/30 06:59:42;;;;;;;10.10;4.95;;;;;;;11.46;100.00;100613.44;6203922;23;20016;-84
2021/12/30 07:02:07;;;;;;;13.88;5.40;;;;;;;11.44;100.00;100612.78;6155946;23;20097;-85
2021/12/30 07:04:33;;;;;;;11.98;6.10;;;;;;;11.44;100.00;100612.78;6183041;23;20025;-85
2021/12/30 07:06:59;;;;;;;13.77;5.93;;;;;;;11.43;100.00;100619.19;6182196;23;20102;-84
2021/12/30 07:09:25;;;;;;;11.73;4.82;;;;;;;11.46;100.00;100618.81;6207978;23;20502;-85
2021/12/30 07:11:51;;;;;;;12.73;6.10;;;;;;;11.46;100.00;100610.75;6157008;23;20021;-86
2021/12/30 07:14:20;;;;;;;14.35;5.53;;;;;;;11.49;100.00;100615.78;6208296;23;20130;-85
2021/12/30 07:16:46;;;;;;;12.57;5.95;;;;;;;11.50;100.00;100612.06;6182883;23;20013;-84
2021/12/30 07:19:12;;;;;;;15.60;6.68;;;;;;;11.52;100.00;100622.66;6208997;23;20020;-85
2021/12/30 07:21:38;;;;;;;15.10;6.68;;;;;;;11.57;100.00;100635.59;6156755;23;20398;-84
2021/12/30 07:24:04;;;;;;;15.30;6.63;;;;;;;11.57;100.00;100632.91;6207480;23;20104;-85
2021/12/30 07:26:29;;;;;;;18.60;7.28;;;;;;;11.57;100.00;100633.72;6158301;23;20419;-85
2021/12/30 07:28:55;;;;;;;17.58;7.03;;;;;;;11.61;100.00;100644.97;6157017;23;20100;-85
2021/12/30 07:31:20;;;;;;;20.10;8.85;;;;;;;11.57;100.00;100644.47;6207511;23;20328;-85
2021/12/30 07:33:45;;;;;;;21.30;9.85;;;;;;;11.59;100.00;100633.53;6181674;23;20013;-84
2021/12/30 07:36:11;;;;;;;25.10;10.60;;;;;;;11.62;100.00;100649.31;6210031;23;20012;-86
2021/12/30 07:38:37;;;;;;;26.30;11.40;;;;;;;11.65;100.00;100657.91;6182406;23;20020;-85
2021/12/30 07:41:04;;;;;;;27.17;11.15;;;;;;;11.67;100.00;100657.69;6182515;23;20020;-85
2021/12/30 07:43:30;;;;;;;30.05;12.43;;;;;;;11.72;100.00;100658.84;6158330;23;20498;-84
2021/12/30 07:45:55;;;;;;;27.48;11.70;;;;;;;11.74;100.00;100667.59;6156703;23;20012;-85
2021/12/30 07:48:21;;;;;;;25.77;10.40;;;;;;;11.78;100.00;100656.50;6144227;23;20451;-86
2021/12/30 07:50:46;;;;;;;30.42;11.60;;;;;;;11.77;100.00;100666.41;6181126;23;20440;-86
2021/12/30 07:53:12;;;;;;;30.40;13.68;;;;;;;11.75;100.00;100668.44;6156369;23;20469;-88
2021/12/30 07:55:37;;;;;;;26.85;11.68;;;;;;;11.77;100.00;100666.41;6176372;23;20017;-85
2021/12/30 07:58:03;;;;;;;31.75;15.00;;;;;;;11.75;100.00;100661.19;6181354;23;20371;-85
2021/12/30 08:00:28;;;;;;;34.97;13.68;;;;;;;11.79;100.00;100675.13;6155040;23;20078;-86
2021/12/30 08:02:54;;;;;;;35.28;15.50;;;;;;;11.79;100.00;100653.59;6156693;23;20459;-85
2021/12/30 08:05:20;;;;;;;39.00;17.00;;;;;;;11.81;100.00;100664.19;6180697;23;20013;-86
2021/12/30 08:07:46;;;;;;;39.17;16.50;;;;;;;11.81;100.00;100656.97;6157154;23;20025;-86
2021/12/30 08:10:14;;;;;;;39.63;18.05;;;;;;;11.84;100.00;100678.13;6158404;23;20070;-86
2021/12/30 08:12:44;;;;;;;38.33;17.40;;;;;;;11.85;100.00;100677.13;6181876;23;20017;-85
2021/12/30 08:15:11;;;;;;;39.53;17.25;;;;;;;11.87;100.00;100675.13;6207842;23;20017;-85
2021/12/30 08:17:37;;;;;;;35.22;17.13;;;;;;;11.97;100.00;100677.59;6156969;23;20016;-85
2021/12/30 08:20:05;;;;;;;34.45;15.07;;;;;;;12.00;100.00;100679.94;6181911;23;20024;-85
2021/12/30 08:22:30;;;;;;;37.60;16.10;;;;;;;12.01;100.00;100694.22;6159645;23;20040;-85
2021/12/30 08:24:56;;;;;;;37.35;17.52;;;;;;;12.04;100.00;100677.72;6209628;23;20028;-86
2021/12/30 08:27:22;;;;;;;35.15;17.45;;;;;;;12.02;100.00;100696.72;6186483;23;20013;-85
2021/12/30 08:29:48;;;;;;;38.10;15.32;;;;;;;12.04;100.00;100693.88;6185289;23;20020;-85
2021/12/30 08:32:16;;;;;;;32.85;16.33;;;;;;;12.07;100.00;100690.81;6212556;23;20463;-85
2021/12/30 08:34:43;;;;;;;34.38;16.63;;;;;;;12.07;100.00;100699.72;6183027;23;20058;-85
2021/12/30 08:37:09;;;;;;;32.10;16.90;;;;;;;12.10;100.00;100687.78;6161251;23;20082;-85
2021/12/30 08:39:36;;;;;;;33.33;15.27;;;;;;;12.11;100.00;100711.81;6213290;23;20028;-85
2021/12/30 08:42:04;;;;;;;29.80;15.82;;;;;;;12.14;100.00;100687.25;6211511;23;20033;-86
2021/12/30 08:44:29;;;;;;;30.38;13.68;;;;;;;12.17;100.00;100700.34;6160917;23;20017;-84
2021/12/30 08:46:55;;;;;;;27.58;14.48;;;;;;;12.18;100.00;100696.63;6185657;23;20009;-87
2021/12/30 08:49:21;;;;;;;21.75;11.75;;;;;;;12.23;100.00;100709.56;6186422;23;20012;-85
2021/12/30 08:51:46;;;;;;;23.95;11.25;;;;;;;12.26;100.00;100709.22;6185424;23;20346;-85
2021/12/30 08:54:12;;;;;;;21.95;12.13;;;;;;;12.28;100.00;100707.16;6213452;23;20013;-85
2021/12/30 08:56:37;;;;;;;20.40;12.50;;;;;;;12.29;100.00;100711.53;6159596;23;20020;-85
2021/12/30 08:59:03;;;;;;;20.13;11.70;;;;;;;12.32;100.00;100713.88;6161385;23;20417;-84
2021/12/30 09:01:28;;;;;;;21.30;10.52;;;;;;;12.35;100.00;100712.69;6160652;23;20075;-86
2021/12/30 09:03:53;;;;;;;20.92;11.45;;;;;;;12.35;100.00;100713.53;6185335;23;20027;-85
2021/12/30 09:06:19;;;;;;;19.35;10.23;;;;;;;12.36;100.00;100714.34;6136741;23;20543;-85
2021/12/30 09:08:44;;;;;;;16.42;9.48;;;;;;;12.37;100.00;100700.75;6161149;23;20031;-85
2021/12/30 09:11:10;;;;;;;13.90;7.43;;;;;;;12.42;100.00;100703.72;6212937;23;20692;-85
2021/12/30 09:13:35;;;;;;;15.45;7.40;;;;;;;12.45;100.00;100715.97;6116971;23;20071;-85
2021/12/30 09:16:02;;;;;;;13.82;7.75;;;;;;;12.46;100.00;100711.41;6173601;23;20100;-85
2021/12/30 09:18:27;;;;;;;11.80;6.57;;;;;;;12.49;100.00;100713.78;6150654;23;20027;-85
2021/12/30 09:20:53;;;;;;;11.32;6.55;;;;;;;12.52;100.00;100721.50;6151133;23;20033;-85
2021/12/30 09:23:19;;;;;;;10.35;6.10;;;;;;;12.53;100.00;100723.16;6127779;23;20088;-86
2021/12/30 09:25:45;;;;;;;11.13;5.90;;;;;;;12.56;100.00;100730.88;6147112;23;20471;-85
2021/12/30 09:28:12;;;;;;;9.48;5.00;;;;;;;12.59;100.00;100735.91;6147344;23;20013;-85
2021/12/30 09:30:39;;;;;;;9.25;5.85;;;;;;;12.59;100.00;100741.28;6170872;23;20016;-85
2021/12/30 09:33:05;;;;;;;8.75;5.22;;;;;;;12.61;100.00;100728.50;6172497;23;20021;-85
2021/12/30 09:35:32;;;;;;;10.38;5.43;;;;;;;12.62;100.00;100733.69;6147718;23;20013;-85
2021/12/30 09:37:58;;;;;;;9.93;6.43;;;;;;;12.64;100.00;100709.28;6154645;23;20016;-85
2021/12/30 09:40:25;;;;;;;9.40;5.13;;;;;;;12.69;100.00;100741.03;6179833;23;20082;-86
2021/12/30 09:42:54;;;;;;;8.20;5.50;;;;;;;12.73;100.00;100732.44;6180113;23;20554;-86
2021/12/30 09:45:20;;;;;;;10.32;5.35;;;;;;;12.75;100.00;100746.56;6130424;23;20023;-85
2021/12/30 09:47:51;;;;;;;7.15;5.10;;;;;;;12.76;100.00;100736.63;6181701;23;20020;-85
2021/12/30 09:50:22;;;;;;;7.43;5.00;;;;;;;12.77;100.00;100752.59;6206964;23;20020;-85
2021/12/30 09:52:47;;;;;;;9.10;4.85;;;;;;;12.78;100.00;100743.50;6182572;23;20457;-85
2021/12/30 09:55:14;;;;;;;8.70;5.32;;;;;;;12.78;100.00;100740.81;6159253;23;20020;-85
2021/12/30 09:57:40;;;;;;;8.73;5.50;;;;;;;12.78;100.00;100756.97;6208150;23;20021;-85
2021/12/30 10:00:10;;;;;;;9.85;5.43;;;;;;;12.79;100.00;100753.25;6208061;23;20019;-85
2021/12/30 10:02:35;;;;;;;7.10;5.40;;;;;;;12.81;100.00;100764.69;6209525;23;20086;-85
2021/12/30 10:05:10;;;;;;;7.88;4.40;;;;;;;12.85;100.00;100768.69;6130056;23;20016;-85
2021/12/30 10:07:39;;;;;;;8.20;4.93;;;;;;;12.87;100.00;100755.91;6203716;23;20083;-86
2021/12/30 10:10:24;;;;;;;;;;;;;;;12.91;100.00;100774.38;6129177;23;20176;-85
2021/12/30 10:12:49;;;;;;;8.82;4.78;;;;;;;12.86;100.00;100762.31;6202119;23;20339;-85
2021/12/30 10:15:15;;;;;;;9.20;5.75;;;;;;;12.91;100.00;100761.75;6179400;23;20044;-85
2021/12/30 10:17:40;;;;;;;7.10;5.25;;;;;;;12.95;100.00;100778.41;6157442;23;20447;-85
2021/12/30 10:20:21;;;;;;;9.27;5.20;;;;;;;13.00;100.00;100767.91;6156952;23;20016;-85
2021/12/30 10:22:47;;;;;;;8.45;5.30;;;;;;;13.01;100.00;100772.28;6183794;23;20024;-86
2021/12/30 10:25:34;;;;;;;9.20;5.75;;;;;;;13.02;100.00;100773.97;6185000;23;20466;-85
2021/12/30 10:28:21;;;;;;;12.63;6.45;;;;;;;13.05;100.00;100754.75;6158154;23;20065;-85
2021/12/30 10:30:47;;;;;;;11.98;7.78;;;;;;;13.06;100.00;100756.41;6208340;23;20013;-87
2021/12/30 10:33:17;;;;;;;10.30;6.25;;;;;;;13.06;100.00;100737.56;6196834;23;20023;-87
2021/12/30 10:35:43;;;;;;;11.85;8.00;;;;;;;13.09;100.00;100745.28;6209386;23;20071;-86
2021/12/30 10:38:11;;;;;;;15.10;8.52;;;;;;;13.11;100.00;100759.41;6185139;23;20013;-87
2021/12/30 10:40:39;;;;;;;12.77;9.90;;;;;;;13.15;100.00;100759.88;6210573;23;20021;-87
2021/12/30 10:43:25;;;;;;;13.07;10.05;;;;;;;13.18;100.00;100778.41;6210548;23;20447;-86
2021/12/30 10:46:13;;;;;;;15.73;9.85;;;;;;;13.21;100.00;100778.84;6206395;23;20020;-85
2021/12/30 10:48:56;;;;;;;17.00;11.13;;;;;;;13.23;100.00;100775.97;6206279;23;20088;-86
2021/12/30 10:51:24;;;;;;;14.82;10.60;;;;;;;13.23;100.00;100776.81;6157035;23;20248;-87
2021/12/30 10:53:52;;;;;;;16.17;12.02;;;;;;;13.26;100.00;100798.06;6179855;23;20024;-85
2021/12/30 10:56:29;;;;;;;16.98;12.57;;;;;;;13.27;100.00;100805.09;6153683;23;20020;-86
2021/12/30 10:59:13;;;;;;;20.08;14.00;;;;;;;13.29;100.00;100815.69;6174292;23;20027;-85
2021/12/30 11:01:46;;;;;;;19.48;13.88;;;;;;;13.28;100.00;100805.94;6176108;23;20082;-86
2021/12/30 11:04:13;;;;;;;16.73;12.55;;;;;;;13.28;100.00;100804.06;6179665;23;20024;-85
2021/12/30 11:06:40;;;;;;;17.95;13.23;;;;;;;13.26;100.00;100806.13;6179176;23;20078;-86
2021/12/30 11:09:11;;;;;;;17.23;12.80;;;;;;;13.28;100.00;100811.34;6207402;23;20035;-86
2021/12/30 11:11:41;;;;;;;15.90;11.73;;;;;;;13.29;100.00;100811.16;6180515;23;20458;-87